Terminal Aerodrome Forecast
Issued by NWS

Home | Current Version | Previous Version | Text Only | Print | Product List | Glossary On
Versions: 1 2 3 4 5 6 7 8 9 10 11 12
000
FTUS45 KTFX 310537
TAFBZN
TAF
KBZN 310537Z 3106/0106 16006KT P6SM SCT090
     FM311900 26012G22KT P6SM SKC
     FM010000 33011KT P6SM SKC
     FM010400 36007KT P6SM SKC=

USA.gov is the U.S. government's official web portal to all federal, state and local government web resources and services.